createdAt,value
2024-03-29T00:02:46.551Z,37.5
2024-03-29T00:07:52.949Z,37.5
2024-03-29T00:12:59.387Z,37.5
2024-03-29T00:18:05.780Z,37.5
2024-03-29T00:23:12.207Z,37.5
2024-03-29T00:28:18.614Z,37.5
2024-03-29T00:33:25.017Z,37.5
2024-03-29T00:38:31.442Z,37.5
2024-03-29T00:43:37.851Z,37.5
2024-03-29T00:48:44.266Z,37.5
2024-03-29T00:53:50.691Z,37.5
2024-03-29T00:58:57.091Z,37.5
2024-03-29T01:04:03.517Z,37.5
2024-03-29T01:09:09.926Z,37.5
2024-03-29T01:14:16.336Z,37.5
2024-03-29T01:19:22.889Z,37.5
2024-03-29T01:24:29.355Z,37
2024-03-29T01:29:34.821Z,37.5
2024-03-29T01:34:41.239Z,37.5
2024-03-29T01:39:47.649Z,37.5
2024-03-29T01:44:54.069Z,37.5
2024-03-29T01:50:00.480Z,37.5
2024-03-29T01:55:06.899Z,37.5
2024-03-29T02:00:13.313Z,37.5
2024-03-29T02:05:19.733Z,37.5
2024-03-29T02:10:26.142Z,37.5
2024-03-29T02:15:32.552Z,37.5
2024-03-29T02:20:38.973Z,37.5
2024-03-29T02:25:45.393Z,37.5
2024-03-29T02:30:51.789Z,37.5
2024-03-29T02:35:58.203Z,37.5
2024-03-29T02:41:04.620Z,37.5
2024-03-29T02:46:11.037Z,37.5
2024-03-29T02:51:17.438Z,37.5
2024-03-29T02:56:23.858Z,37.5
2024-03-29T03:01:30.275Z,37.5
2024-03-29T03:06:36.690Z,37.5
2024-03-29T03:11:43.112Z,37
2024-03-29T03:16:49.521Z,37
2024-03-29T03:21:55.932Z,37
2024-03-29T03:27:02.345Z,37
2024-03-29T03:32:08.755Z,37
2024-03-29T03:37:15.291Z,37
2024-03-29T03:42:20.781Z,37
2024-03-29T03:47:27.195Z,37
2024-03-29T03:52:33.615Z,37
2024-03-29T03:57:40.012Z,37
2024-03-29T04:02:46.430Z,37
2024-03-29T04:07:52.853Z,37
2024-03-29T04:12:59.260Z,37
2024-03-29T04:18:05.672Z,37
2024-03-29T04:23:12.076Z,37
2024-03-29T04:28:18.502Z,37
2024-03-29T04:33:24.902Z,37
2024-03-29T04:38:31.280Z,37
2024-03-29T04:43:37.584Z,37
2024-03-29T04:48:43.889Z,37
2024-03-29T04:53:50.191Z,37
2024-03-29T04:58:56.498Z,37
2024-03-29T05:04:02.796Z,37
2024-03-29T05:09:09.111Z,37
2024-03-29T05:14:15.409Z,37
2024-03-29T05:19:21.717Z,37
2024-03-29T05:24:28.027Z,37
2024-03-29T05:29:34.333Z,37
2024-03-29T05:34:40.640Z,37
2024-03-29T05:39:46.932Z,37
2024-03-29T05:44:53.256Z,37
2024-03-29T05:49:59.688Z,36.5
2024-03-29T05:55:05.248Z,36.5
2024-03-29T06:00:10.846Z,36.5
2024-03-29T06:05:16.340Z,36.5
2024-03-29T06:10:21.894Z,36.5
2024-03-29T06:15:27.423Z,36.5
2024-03-29T06:20:32.973Z,36.5
2024-03-29T06:25:38.526Z,36.5
2024-03-29T06:30:44.915Z,36.5
2024-03-29T06:35:50.338Z,36.5
2024-03-29T06:40:56.646Z,36.5
2024-03-29T06:46:02.938Z,36.5
2024-03-29T06:51:09.246Z,36
2024-03-29T06:56:15.561Z,36
2024-03-29T07:01:21.866Z,36
2024-03-29T07:06:28.178Z,36
2024-03-29T07:11:34.479Z,36
2024-03-29T07:16:40.793Z,36
2024-03-29T07:21:47.093Z,36
2024-03-29T07:26:53.405Z,36
2024-03-29T07:31:59.709Z,36
2024-03-29T07:37:06.012Z,36
2024-03-29T07:42:12.317Z,35.5
2024-03-29T07:47:18.613Z,35.5
2024-03-29T07:52:24.931Z,35.5
2024-03-29T07:57:31.236Z,35
2024-03-29T08:02:37.545Z,35
2024-03-29T08:07:43.844Z,35
2024-03-29T08:12:50.161Z,34.5
2024-03-29T08:17:56.473Z,34.5
2024-03-29T08:23:02.765Z,34.5
2024-03-29T08:28:09.070Z,34.5
2024-03-29T08:33:15.375Z,34.5
2024-03-29T08:38:21.685Z,34.5
2024-03-29T08:43:28.135Z,34.5
2024-03-29T08:48:33.552Z,34.5
2024-03-29T08:53:39.862Z,35
2024-03-29T08:58:46.162Z,35
2024-03-29T09:03:52.476Z,35
2024-03-29T09:08:58.771Z,35
2024-03-29T09:14:05.087Z,34.5
2024-03-29T09:19:11.394Z,34.5
2024-03-29T09:24:17.698Z,34.5
2024-03-29T09:29:23.998Z,35
2024-03-29T09:34:30.306Z,35
2024-03-29T09:39:36.608Z,35
2024-03-29T09:44:42.918Z,35
2024-03-29T09:49:49.219Z,35
2024-03-29T09:54:55.520Z,35
2024-03-29T10:00:01.830Z,35
2024-03-29T10:05:08.153Z,34.5
2024-03-29T10:10:14.447Z,34.5
2024-03-29T10:15:20.743Z,34.5
2024-03-29T10:20:27.067Z,34.5
2024-03-29T10:25:33.369Z,34.5
2024-03-29T10:30:39.673Z,34
2024-03-29T10:35:45.981Z,34
2024-03-29T10:40:52.282Z,34
2024-03-29T10:45:58.587Z,34
2024-03-29T10:51:04.893Z,34
2024-03-29T10:56:11.340Z,34
2024-03-29T11:01:16.758Z,34
2024-03-29T11:06:23.065Z,34
2024-03-29T11:11:29.371Z,34
2024-03-29T11:16:35.681Z,33.5
2024-03-29T11:21:41.985Z,33.5
2024-03-29T11:26:48.300Z,33.5
2024-03-29T11:31:54.604Z,33.5
2024-03-29T11:37:00.905Z,33.5
2024-03-29T11:42:07.216Z,34
2024-03-29T11:47:13.520Z,34
2024-03-29T11:52:19.818Z,34
2024-03-29T11:57:26.128Z,33.5
2024-03-29T12:02:32.430Z,33.5
2024-03-29T12:07:38.743Z,33.5
2024-03-29T12:12:45.052Z,33.5
2024-03-29T12:17:51.354Z,33.5
2024-03-29T12:22:57.661Z,33.5
2024-03-29T12:28:03.963Z,33.5
2024-03-29T12:33:10.261Z,33.5
2024-03-29T12:38:16.571Z,33.5
2024-03-29T12:43:22.909Z,33.5
2024-03-29T12:48:29.197Z,33.5
2024-03-29T12:53:35.497Z,33
2024-03-29T12:58:41.802Z,33
2024-03-29T13:03:48.106Z,33
2024-03-29T13:08:54.542Z,33
2024-03-29T13:14:00.075Z,33
2024-03-29T13:19:06.525Z,33
2024-03-29T13:24:11.917Z,33.5
2024-03-29T13:29:18.227Z,33.5
2024-03-29T13:34:24.535Z,33.5
2024-03-29T13:39:30.835Z,34
2024-03-29T13:44:37.142Z,34
2024-03-29T13:49:43.453Z,34
2024-03-29T13:54:49.759Z,34
2024-03-29T13:59:56.052Z,34
2024-03-29T14:05:02.370Z,34
2024-03-29T14:10:08.667Z,34
2024-03-29T14:15:14.982Z,34
2024-03-29T14:20:21.288Z,34
2024-03-29T14:25:27.598Z,34.5
2024-03-29T14:30:33.903Z,34.5
2024-03-29T14:35:40.208Z,34.5
2024-03-29T14:40:46.518Z,34
2024-03-29T14:45:52.817Z,34
2024-03-29T14:50:59.134Z,34
2024-03-29T14:56:05.441Z,34
2024-03-29T15:01:11.754Z,34
2024-03-29T15:06:18.045Z,34
2024-03-29T15:11:24.351Z,34
2024-03-29T15:16:30.696Z,34
2024-03-29T15:21:37.274Z,34
2024-03-29T15:26:43.479Z,34.5
2024-03-29T15:31:50.030Z,34.5
2024-03-29T15:36:56.452Z,34.5
2024-03-29T15:42:01.535Z,34.5
2024-03-29T15:47:07.975Z,34.5
2024-03-29T15:52:14.467Z,34.5
2024-03-29T15:57:20.784Z,35
2024-03-29T16:02:26.832Z,35
2024-03-29T16:07:33.238Z,35
2024-03-29T16:12:39.764Z,35
2024-03-29T16:17:45.866Z,35
2024-03-29T16:22:52.123Z,35
2024-03-29T16:27:58.293Z,35
2024-03-29T16:33:04.861Z,35
2024-03-29T16:38:10.978Z,35.5
2024-03-29T16:43:17.302Z,35.5
2024-03-29T16:48:23.696Z,35.5
2024-03-29T16:53:30.046Z,35.5
2024-03-29T16:58:36.390Z,35.5
2024-03-29T17:03:42.444Z,35.5
2024-03-29T17:08:48.844Z,35.5
2024-03-29T17:13:55.082Z,36
2024-03-29T17:19:01.451Z,36
2024-03-29T17:24:07.666Z,36
2024-03-29T17:29:14.092Z,36
2024-03-29T17:34:20.317Z,36
2024-03-29T17:39:26.584Z,36
2024-03-29T17:44:33.095Z,36.5
2024-03-29T17:49:39.475Z,36.5
2024-03-29T17:54:44.761Z,36.5
2024-03-29T17:59:51.124Z,36.5
2024-03-29T18:04:57.501Z,36.5
2024-03-29T18:10:03.812Z,36.5
2024-03-29T18:15:10.030Z,37
2024-03-29T18:20:16.537Z,37
2024-03-29T18:25:22.963Z,37
2024-03-29T18:30:29.338Z,37
2024-03-29T18:35:35.895Z,37
2024-03-29T18:40:42.149Z,37
2024-03-29T18:45:48.620Z,37
2024-03-29T18:50:54.925Z,37
2024-03-29T18:56:01.381Z,37
2024-03-29T19:01:07.808Z,37
2024-03-29T19:06:14.313Z,37
2024-03-29T19:11:20.596Z,37
2024-03-29T19:16:27.011Z,37.5
2024-03-29T19:21:33.579Z,37.5
2024-03-29T19:26:39.828Z,37.5
2024-03-29T19:31:46.283Z,37.5
2024-03-29T19:36:52.762Z,37.5
2024-03-29T19:41:59.095Z,37.5
2024-03-29T19:47:05.539Z,37.5
2024-03-29T19:52:11.897Z,37.5
2024-03-29T19:57:18.401Z,37.5
2024-03-29T20:02:24.860Z,37.5
2024-03-29T20:07:30.337Z,37.5
2024-03-29T20:12:36.748Z,37.5
2024-03-29T20:17:43.227Z,37.5
2024-03-29T20:22:49.688Z,37.5
2024-03-29T20:27:55.981Z,37.5
2024-03-29T20:33:02.401Z,37.5
2024-03-29T20:38:08.810Z,37.5
2024-03-29T20:43:15.255Z,37.5
2024-03-29T20:48:21.635Z,37.5
2024-03-29T20:53:28.190Z,37.5
2024-03-29T20:58:34.464Z,37.5
2024-03-29T21:03:40.904Z,37.5
2024-03-29T21:08:47.301Z,37.5
2024-03-29T21:13:53.778Z,37.5
2024-03-29T21:19:00.182Z,37.5
2024-03-29T21:24:06.615Z,37.5
2024-03-29T21:29:13.012Z,38
2024-03-29T21:34:19.460Z,38
2024-03-29T21:39:25.780Z,38
2024-03-29T21:44:32.301Z,38
2024-03-29T21:49:38.602Z,38
2024-03-29T21:54:45.059Z,38
2024-03-29T21:59:51.430Z,38
2024-03-29T22:04:57.919Z,38
2024-03-29T22:10:04.307Z,38
2024-03-29T22:15:10.937Z,38
2024-03-29T22:20:16.380Z,38
2024-03-29T22:25:22.874Z,38
2024-03-29T22:30:29.119Z,38
2024-03-29T22:35:35.524Z,38
2024-03-29T22:40:42.039Z,38
2024-03-29T22:45:48.358Z,38
2024-03-29T22:50:54.761Z,38
2024-03-29T22:56:01.178Z,38
2024-03-29T23:01:07.707Z,38
2024-03-29T23:06:14.002Z,38
2024-03-29T23:11:20.423Z,38
2024-03-29T23:16:26.821Z,38
2024-03-29T23:21:33.248Z,38
2024-03-29T23:26:39.645Z,38
2024-03-29T23:31:46.076Z,38
2024-03-29T23:36:52.496Z,38
2024-03-29T23:41:58.898Z,38
2024-03-29T23:47:05.317Z,38
2024-03-29T23:52:11.730Z,38
2024-03-29T23:57:18.145Z,38
